Flight Track Log - Related Links

Times and Time Zones

All times are in EDT time to prevent confusion due to time zone crossing. See the OPT314 flight status page for this flight to view local times or setup timezone preferences in your user account.

Time Position Orientation Groundspeed Altitude Reporting Facility
EDT Latitude Longitude Course Direction KTS MPH feet Rate Location/Type
Mon 05:11:30 PM 37.7037 -122.2180 360° North 76 87  Level FlightAware ADS-B
Mon 05:11:48 PM 37.7106 -122.2280 311° West 125 144 400 1,574 Climbing FlightAware ADS-B
Mon 05:12:31 PM 37.7340 -122.2620 311° West 223 257 1,600 1,615 Climbing FlightAware ADS-B
Mon 05:12:40 PM 37.7417 -122.2730 312° West 241 277 1,800 3,250 Climbing FlightAware ADS-B
Mon 05:12:55 PM 37.7532 -122.2880 314° West 248 285 2,900 4,065 Climbing FlightAware ADS-B
Mon 05:13:11 PM 37.7655 -122.3050 312° West 249 287 3,900 3,805 Climbing FlightAware ADS-B
Mon 05:13:36 PM 37.7873 -122.3280 320° Northwest 248 285 5,500 3,368 Climbing FlightAware ADS-B
Mon 05:14:08 PM 37.7940 -122.3300 347° North 262 302 7,100 3,319 Climbing FlightAware ADS-B
Mon 05:14:23 PM 37.8350 -122.3070 24° Northeast 265 305 8,100 3,818 Climbing FlightAware ADS-B
Mon 05:14:30 PM 37.8380 -122.2970 69° East 266 306 8,500 3,429 Climbing FlightAware ADS-B
Mon 05:14:51 PM 37.8440 -122.2650 77° East 267 307 9,700 3,724 Climbing FlightAware ADS-B
Mon 05:14:59 PM 37.8467 -122.2500 77° East 267 307 10,300 3,429 Climbing FlightAware ADS-B
Mon 05:15:33 PM 37.8572 -122.1960 76° East 277 319 12,100 3,200 Climbing FlightAware ADS-B
Mon 05:15:59 PM 37.8650 -122.1550 76° East 281 323 13,500 2,947 Climbing FlightAware ADS-B
Mon 05:16:30 PM 37.8745 -122.1040 77° East 296 341 14,900 2,783 Climbing FlightAware ADS-B
Mon 05:17:08 PM 37.8869 -122.0380 77° East 306 352 16,700 2,704 Climbing FlightAware ADS-B
Mon 05:17:41 PM 37.8978 -121.9790 77° East 313 360 18,100 2,625 Climbing FlightAware ADS-B
Mon 05:18:12 PM 37.9081 -121.9230 77° East 318 366 19,500 1,967 Climbing FlightAware ADS-B
Mon 05:18:42 PM 37.9188 -121.8660 77° East 352 405 20,100 1,475 Climbing FlightAware ADS-B
Mon 05:19:13 PM 37.9304 -121.8030 77° East 364 419 21,000 1,443 Climbing FlightAware ADS-B
Mon 05:20:01 PM 37.9480 -121.7050 77° East 387 445 22,000 1,254 Climbing FlightAware ADS-B
Mon 05:20:20 PM 37.9574 -121.6560 76° East 387 445 22,400 2,280 Climbing FlightAware ADS-B
Mon 05:20:51 PM 37.9683 -121.5880 78° East 383 441 23,900 2,806 Climbing FlightAware ADS-B
Mon 05:21:22 PM 37.9773 -121.5220 80° East 372 428 25,300 2,585 Climbing FlightAware ADS-B
Mon 05:21:56 PM 37.9871 -121.4490 80° East 367 422 26,700 2,294 Climbing FlightAware ADS-B
Mon 05:22:30 PM 37.9971 -121.3770 80° East 374 430 27,900 2,087 Climbing FlightAware ADS-B
Mon 05:23:05 PM 38.0079 -121.2990 80° East 379 436 29,100 2,000 Climbing FlightAware ADS-B
Mon 05:23:42 PM 38.0191 -121.2190 80° East 387 445 30,300 1,970 Climbing FlightAware ADS-B
Mon 05:24:12 PM 38.0286 -121.1500 80° East 390 449 31,300 2,000 Climbing FlightAware ADS-B
Mon 05:24:48 PM 38.0398 -121.0690 80° East 392 451 32,500 2,000 Climbing FlightAware ADS-B
Mon 05:25:27 PM 38.0519 -120.9810 80° East 394 453 33,800 1,917 Climbing FlightAware ADS-B
Mon 05:26:00 PM 38.0620 -120.9090 80° East 392 451 34,800 1,826 Climbing FlightAware ADS-B
Mon 05:26:36 PM 38.0720 -120.8300 81° East 391 450 35,900 1,917 Climbing FlightAware ADS-B
Mon 05:27:12 PM 38.0840 -120.7480 79° East 390 449 37,100 1,714 Climbing FlightAware ADS-B
Mon 05:27:53 PM 38.0960 -120.6510 81° East 393 452 38,100 1,481 Climbing FlightAware ADS-B
Mon 05:28:29 PM 38.1070 -120.5690 80° East 393 452 39,000 1,433 Climbing FlightAware ADS-B
Mon 05:29:00 PM 38.1160 -120.5020 80° East 391 450 39,700 1,235 Climbing FlightAware ADS-B
Mon 05:29:37 PM 38.1270 -120.4200 80° East 395 455 40,400 1,068 Climbing FlightAware ADS-B
Mon 05:30:13 PM 38.1390 -120.3320 80° East 397 457 41,000 1,029 Climbing FlightAware ADS-B
Mon 05:30:47 PM 38.1490 -120.2560 80° East 398 458 41,600 1,000 Climbing FlightAware ADS-B
Mon 05:31:25 PM 38.1600 -120.1670 81° East 399 459 42,200 943 Climbing FlightAware ADS-B
Mon 05:31:57 PM 38.1700 -120.0940 80° East 398 458 42,700 971 Climbing FlightAware ADS-B
Mon 05:32:33 PM 38.1800 -120.0110 81° East 397 457 43,300 1,029 Climbing FlightAware ADS-B
Mon 05:33:07 PM 38.1900 -119.9320 81° East 393 452 43,900 1,029 Climbing FlightAware ADS-B
Mon 05:33:43 PM 38.2000 -119.8500 81° East 389 448 44,500 930 Climbing FlightAware ADS-B
Mon 05:34:18 PM 38.2100 -119.7740 80° East 386 444 45,000 429 Climbing FlightAware ADS-B
Mon 05:34:53 PM 38.2200 -119.6940 81° East 394 453 45,000  Level FlightAware ADS-B
Mon 05:35:29 PM 38.2310 -119.6090 81° East 402 463 45,000  Level FlightAware ADS-B
Mon 05:36:03 PM 38.2410 -119.5290 81° East 408 470 45,000  Level FlightAware ADS-B
Mon 05:36:39 PM 38.2510 -119.4420 82° East 414 476 45,000  Level FlightAware ADS-B
Mon 05:37:12 PM 38.2600 -119.3670 81° East 418 481 45,000  Level FlightAware ADS-B
Mon 05:37:47 PM 38.2710 -119.2840 80° East 423 487 45,000  Level FlightAware ADS-B
Mon 05:38:19 PM 38.2810 -119.2000 81° East 428 493 45,000  Level FlightAware ADS-B
Mon 05:38:59 PM 38.2930 -119.0990 81° East 431 496 45,000  Level FlightAware ADS-B
Mon 05:39:35 PM 38.3040 -119.0080 81° East 434 499 45,000  Level FlightAware ADS-B
Mon 05:40:07 PM 38.3130 -118.9270 82° East 438 504 45,000  Level FlightAware ADS-B
Mon 05:40:42 PM 38.3240 -118.8380 81° East 441 507 45,000  Level FlightAware ADS-B
Mon 05:41:17 PM 38.3340 -118.7490 82° East 443 510 45,000  Level FlightAware ADS-B
Mon 05:41:47 PM 38.3430 -118.6710 82° East 445 512 45,000  Level FlightAware ADS-B
Mon 05:42:37 PM 38.3580 -118.5510 81° East 447 514 45,000  Level FlightAware ADS-B
Mon 05:43:13 PM 38.3690 -118.4450 82° East 449 517 45,000  Level FlightAware ADS-B
Mon 05:43:45 PM 38.3790 -118.3590 82° East 450 518 45,000  Level FlightAware ADS-B
Mon 05:44:20 PM 38.3890 -118.2700 82° East 451 519 45,000  Level FlightAware ADS-B
Mon 05:44:57 PM 38.4000 -118.1730 82° East 452 520 45,000  Level FlightAware ADS-B
Mon 05:45:32 PM 38.4100 -118.0810 82° East 452 520 45,000  Level FlightAware ADS-B
Mon 05:46:05 PM 38.4200 -117.9930 82° East 453 521 45,000  Level FlightAware ADS-B
Mon 05:46:40 PM 38.4300 -117.9010 82° East 454 522 45,000  Level FlightAware ADS-B
Mon 05:47:17 PM 38.4400 -117.8030 83° East 455 524 45,000  Level FlightAware ADS-B
Mon 05:47:49 PM 38.4500 -117.7170 82° East 455 524 45,000  Level FlightAware ADS-B
Mon 05:48:25 PM 38.4590 -117.6340 82° East 455 524 45,000  Level FlightAware ADS-B
Mon 05:49:01 PM 38.4680 -117.5520 82° East 455 524 45,000  Level FlightAware ADS-B
Mon 05:49:37 PM 38.4770 -117.4710 82° East 455 524 45,000  Level FlightAware ADS-B
Mon 05:50:14 PM 38.4860 -117.3870 82° East 455 524 45,000  Level FlightAware ADS-B
Mon 05:50:50 PM 38.4950 -117.3060 82° East 455 524 45,000  Level FlightAware ADS-B
Mon 05:51:26 PM 38.5040 -117.2240 82° East 455 524 45,000  Level FlightAware ADS-B
Mon 05:52:02 PM 38.5130 -117.1430 82° East 455 524 45,000  Level FlightAware ADS-B
Mon 05:52:38 PM 38.5220 -117.0610 82° East 455 524 45,000  Level FlightAware ADS-B
Mon 05:53:14 PM 38.5310 -116.9790 82° East 455 524 45,000  Level FlightAware ADS-B
Mon 05:54:03 PM 38.5430 -116.8680 82° East 455 524 45,000  Level FlightAware ADS-B
Mon 05:54:39 PM 38.5520 -116.7870 82° East 455 524 45,000  Level FlightAware ADS-B
Mon 05:55:15 PM 38.5610 -116.7050 82° East 455 524 45,000  Level FlightAware ADS-B
Mon 05:55:51 PM 38.5700 -116.6240 82° East 455 524 45,000  Level FlightAware ADS-B
Mon 05:56:27 PM 38.5790 -116.5420 82° East 455 524 45,000  Level FlightAware ADS-B
Mon 05:57:03 PM 38.5880 -116.4610 82° East 455 524 45,000  Level FlightAware ADS-B
Mon 05:57:39 PM 38.5970 -116.3790 82° East 455 524 45,000  Level FlightAware ADS-B
Mon 05:58:26 PM 38.6131 -116.0767 82° East 447 514 45,000  Level Salt Lake Center
Mon 05:59:28 PM 38.6300 -115.8881 83° East 447 514 45,000  Level Salt Lake Center
Mon 06:00:30 PM 38.6450 -115.7297 83° East 449 517 45,000  Level Salt Lake Center
Mon 06:01:32 PM 38.6589 -115.5711 84° East 449 517 45,000  Level Salt Lake Center
Mon 06:02:33 PM 38.6725 -115.4131 84° East 447 514 45,000  Level Salt Lake Center
Mon 06:03:35 PM 38.6867 -115.2608 83° East 450 518 45,000  Level Salt Lake Center
Mon 06:04:37 PM 38.7019 -115.0700 84° East 450 518 45,000  Level Salt Lake Center
Mon 06:05:39 PM 38.7169 -114.9100 83° East 451 519 45,000  Level Salt Lake Center
Mon 06:06:41 PM 38.7300 -114.7503 84° East 452 520 45,000  Level Salt Lake Center
Mon 06:07:42 PM 38.7431 -114.5900 84° East 453 521 45,000  Level Salt Lake Center
Mon 06:12:43 PM 38.8050 -113.7700 84° East 458 527 45,000  Level FlightAware ADS-B
Mon 06:13:23 PM 38.8120 -113.6770 84° East 458 527 45,000  Level FlightAware ADS-B
Mon 06:13:59 PM 38.8190 -113.5940 84° East 458 527 45,000  Level FlightAware ADS-B
Mon 06:14:35 PM 38.8260 -113.5110 84° East 458 527 45,000  Level FlightAware ADS-B
Mon 06:15:12 PM 38.8330 -113.4260 84° East 458 527 45,000  Level FlightAware ADS-B
Mon 06:15:48 PM 38.8400 -113.3440 84° East 458 527 45,000  Level FlightAware ADS-B
Mon 06:16:13 PM 38.8451 -113.1980 87° East 460 529 45,000  Level FlightAware ADS-B
Mon 06:16:45 PM 38.8510 -113.1110 85° East 460 529 45,000  Level FlightAware ADS-B
Mon 06:17:15 PM 38.8565 -113.0290 85° East 460 529 45,000  Level FlightAware ADS-B
Mon 06:17:50 PM 38.8626 -112.9350 85° East 460 529 45,000  Level FlightAware ADS-B
Mon 06:18:22 PM 38.8683 -112.8470 85° East 460 529 45,000  Level FlightAware ADS-B
Mon 06:18:53 PM 38.8737 -112.7640 85° East 459 528 45,000  Level FlightAware ADS-B
Mon 06:19:24 PM 38.8790 -112.6790 85° East 459 528 45,000  Level FlightAware ADS-B
Mon 06:19:58 PM 38.8848 -112.5880 85° East 460 529 45,000  Level FlightAware ADS-B
Mon 06:20:32 PM 38.8905 -112.4950 85° East 458 527 45,000  Level FlightAware ADS-B
Mon 06:21:07 PM 38.8963 -112.4000 85° East 457 526 45,000  Level FlightAware ADS-B
Mon 06:21:52 PM 38.9038 -112.2770 85° East 461 531 45,000  Level FlightAware ADS-B
Mon 06:22:24 PM 38.9089 -112.1900 86° East 461 531 45,000  Level FlightAware ADS-B
Mon 06:23:14 PM 38.9168 -112.0550 86° East 463 533 45,000  Level FlightAware ADS-B
Mon 06:23:44 PM 38.9216 -111.9710 86° East 464 534 45,000  Level FlightAware ADS-B
Mon 06:24:23 PM 38.9277 -111.8640 86° East 464 534 45,000  Level FlightAware ADS-B
Mon 06:24:55 PM 38.9326 -111.7780 86° East 464 534 45,000  Level FlightAware ADS-B
Mon 06:25:25 PM 38.9371 -111.6940 86° East 466 536 45,000  Level FlightAware ADS-B
Mon 06:25:56 PM 38.9417 -111.6100 86° East 466 536 45,000  Level FlightAware ADS-B
Mon 06:26:35 PM 38.9475 -111.5010 86° East 464 534 45,000  Level FlightAware ADS-B
Mon 06:27:09 PM 38.9524 -111.4070 86° East 464 534 45,000  Level FlightAware ADS-B
Mon 06:27:40 PM 38.9568 -111.3240 86° East 461 531 45,000  Level FlightAware ADS-B
Mon 06:28:12 PM 38.9613 -111.2360 86° East 461 531 45,000  Level FlightAware ADS-B
Mon 06:28:50 PM 38.9666 -111.1330 86° East 458 527 45,000  Level FlightAware ADS-B
Mon 06:29:22 PM 38.9708 -111.0470 86° East 456 525 45,000  Level FlightAware ADS-B
Mon 06:30:01 PM 38.9759 -110.9420 86° East 455 524 45,000  Level FlightAware ADS-B
Mon 06:30:35 PM 38.9803 -110.8490 86° East 455 524 45,000  Level FlightAware ADS-B
Mon 06:31:07 PM 38.9840 -110.7660 87° East 454 522 45,000  Level FlightAware ADS-B
Mon 06:31:47 PM 38.9890 -110.6670 86° East 453 521 45,000  Level FlightAware ADS-B
Mon 06:32:24 PM 38.9930 -110.5690 87° East 454 522 45,000  Level FlightAware ADS-B
Mon 06:33:01 PM 38.9980 -110.4600 87° East 455 524 45,000  Level FlightAware ADS-B
Mon 06:33:37 PM 39.0020 -110.3600 87° East 455 524 45,000  Level FlightAware ADS-B
Mon 06:34:09 PM 39.0060 -110.2750 87° East 455 524 45,000  Level FlightAware ADS-B
Mon 06:34:45 PM 39.0100 -110.1780 87° East 454 522 45,000  Level FlightAware ADS-B
Mon 06:35:21 PM 39.0140 -110.0820 87° East 454 522 45,000  Level FlightAware ADS-B
Mon 06:35:57 PM 39.0180 -109.9860 87° East 453 521 45,000  Level FlightAware ADS-B
Mon 06:36:30 PM 39.0220 -109.8970 87° East 453 521 45,000  Level FlightAware ADS-B
Mon 06:37:07 PM 39.0260 -109.7960 87° East 451 519 45,000  Level FlightAware ADS-B
Mon 06:37:41 PM 39.0410 -109.7060 78° East 459 528 45,000  Level FlightAware ADS-B
Mon 06:38:15 PM 39.0670 -109.6180 69° East 458 527 45,000  Level FlightAware ADS-B
Mon 06:38:50 PM 39.0910 -109.5300 71° East 459 528 45,000  Level FlightAware ADS-B
Mon 06:39:21 PM 39.1140 -109.4490 70° East 457 526 45,000  Level FlightAware ADS-B
Mon 06:40:01 PM 39.1420 -109.3470 70° East 457 526 45,000  Level FlightAware ADS-B
Mon 06:40:37 PM 39.1670 -109.2550 71° East 457 526 45,000  Level FlightAware ADS-B
Mon 06:41:10 PM 39.1900 -109.1730 70° East 457 526 45,000  Level FlightAware ADS-B
Mon 06:41:45 PM 39.2150 -109.0800 71° East 455 524 45,000  Level FlightAware ADS-B
Mon 06:42:23 PM 39.2420 -108.9830 70° East 455 524 45,000  Level FlightAware ADS-B
Mon 06:42:55 PM 39.2650 -108.9010 70° East 455 524 45,000  Level FlightAware ADS-B
Mon 06:43:32 PM 39.2900 -108.8080 71° East 455 524 45,000  Level FlightAware ADS-B
Mon 06:44:08 PM 39.3150 -108.7150 71° East 454 522 45,000 -273 Level FlightAware ADS-B
Mon 06:44:38 PM 39.3350 -108.6410 71° East 461 531 44,700 -2,206 Descending FlightAware ADS-B
Mon 06:45:16 PM 39.3630 -108.5370 71° East 487 560 42,500 -3,486 Descending FlightAware ADS-B
Mon 06:45:52 PM 39.3900 -108.4360 71° East 504 580 40,400 -3,583 Descending FlightAware ADS-B
Mon 06:46:28 PM 39.4180 -108.3310 71° East 514 592 38,200 -2,866 Descending FlightAware ADS-B
Mon 06:46:59 PM 39.4430 -108.2400 70° East 518 596 37,200 -1,075 Descending FlightAware ADS-B
Mon 06:47:35 PM 39.4710 -108.1340 71° East 518 596 37,000 -333 Descending FlightAware ADS-B
Mon 06:48:11 PM 39.4980 -108.0300 71° East 503 579 36,800 -1,826 Descending FlightAware ADS-B
Mon 06:48:44 PM 39.5220 -107.9380 71° East 503 579 34,900 -3,803 Descending FlightAware ADS-B
Mon 06:49:22 PM 39.5550 -107.8300 68° East 502 578 32,300 -3,972 Descending FlightAware ADS-B
Mon 06:49:55 PM 39.5980 -107.7490 55° Northeast 494 568 30,200 -3,913 Descending FlightAware ADS-B
Mon 06:50:31 PM 39.6440 -107.6640 55° Northeast 480 552 27,800 -3,917 Descending FlightAware ADS-B
Mon 06:51:07 PM 39.6870 -107.5810 56° Northeast 461 531 25,500 -3,837 Descending FlightAware ADS-B
Mon 06:51:57 PM 39.7300 -107.4600 65° Northeast 427 491 22,300 -3,067 Descending FlightAware ADS-B
Mon 06:52:37 PM 39.7220 -107.3630 96° East 378 435 20,900 -2,289 Descending FlightAware ADS-B
Mon 06:53:13 PM 39.6920 -107.2950 120° Southeast 356 410 19,400 -2,455 Descending FlightAware ADS-B
Mon 06:53:43 PM 39.6620 -107.2470 129° Southeast 345 397 18,200 -2,435 Descending FlightAware ADS-B
Mon 06:54:22 PM 39.6240 -107.1860 129° Southeast 335 386 16,600 -2,027 Descending FlightAware ADS-B
Mon 06:54:57 PM 39.5890 -107.1310 130° Southeast 308 354 15,700 -845 Descending FlightAware ADS-B
Mon 06:55:33 PM 39.5590 -107.0850 130° Southeast 267 307 15,600 -85 Descending FlightAware ADS-B
Mon 06:56:08 PM 39.5330 -107.0440 129° Southeast 246 283 15,600 -176 Level FlightAware ADS-B
Mon 06:56:41 PM 39.5090 -107.0090 132° Southeast 227 261 15,400 -667 Descending FlightAware ADS-B
Mon 06:56:53 PM 39.4980 -107.0010 151° Southeast 223 257 15,100 -1,625 Descending FlightAware ADS-B
Mon 06:57:29 PM 39.4630 -106.9840 159° South 215 247 14,100 -1,417 Descending FlightAware ADS-B
Mon 06:58:05 PM 39.4330 -106.9690 159° South 186 214 13,400 -973 Descending FlightAware ADS-B
Mon 06:58:43 PM 39.4070 -106.9570 160° South 159 183 12,900 -1,227 Descending FlightAware ADS-B
Mon 06:59:33 PM 39.3710 -106.9370 157° South 150 173 11,600 -1,600 Descending FlightAware ADS-B
Mon 06:59:58 PM 39.3550 -106.9290 159° South 156 180 10,900 -1,290 Descending FlightAware ADS-B
Mon 07:01:20 PM 39.3240 -106.9160 162° South 160 184 9,300 -1,545 Descending FlightAware ADS-B
Mon 07:01:39 PM 39.2860 -106.8990 161° South 139 160 8,300 -985 Descending FlightAware ADS-B
Mon 07:02:27 PM 39.2610 -106.8870 160° South 135 155 8,200 -83 Descending FlightAware ADS-B
Mon 07:02:51 PM 39.2490 -106.8810 159° South 135 155 8,200  Level FlightAware ADS-B
Mon 07:03:15 PM 39.2370 -106.8750 159° South 135 155 8,200  Level FlightAware ADS-B
Mon 07:03:39 PM 39.2260 -106.8690 157° South 135 155 8,200  Level FlightAware ADS-B
Mon 07:09:00 PM 39.2167 -106.8667 176° South  Level FlightAware Approximate

Login

Don't have an account? Register now (free) for customized features, flight alerts, and more!